sensor_id;sensor_type;location;lat;lon;timestamp;temperature;humidity
584;HTU21D;27024;54.068;12.116;2023-04-01T00:01:27;6.86;118.99
584;HTU21D;27024;54.068;12.116;2023-04-01T00:03:54;6.93;118.99
584;HTU21D;27024;54.068;12.116;2023-04-01T00:06:23;6.88;118.99
584;HTU21D;27024;54.068;12.116;2023-04-01T00:08:50;6.87;118.99
584;HTU21D;27024;54.068;12.116;2023-04-01T00:11:17;6.79;118.99
584;HTU21D;27024;54.068;12.116;2023-04-01T00:13:46;6.82;118.99
584;HTU21D;27024;54.068;12.116;2023-04-01T00:16:13;6.90;118.99
584;HTU21D;27024;54.068;12.116;2023-04-01T00:18:48;6.76;118.99
584;HTU21D;27024;54.068;12.116;2023-04-01T00:21:15;6.60;118.99
584;HTU21D;27024;54.068;12.116;2023-04-01T00:23:43;6.70;118.99
584;HTU21D;27024;54.068;12.116;2023-04-01T00:26:10;6.71;118.99
584;HTU21D;27024;54.068;12.116;2023-04-01T00:28:39;6.54;118.99
584;HTU21D;27024;54.068;12.116;2023-04-01T00:31:08;6.63;118.99
584;HTU21D;27024;54.068;12.116;2023-04-01T00:33:36;6.53;118.99
584;HTU21D;27024;54.068;12.116;2023-04-01T00:36:16;6.45;118.99
584;HTU21D;27024;54.068;12.116;2023-04-01T00:38:44;6.54;118.99
584;HTU21D;27024;54.068;12.116;2023-04-01T00:41:12;6.46;118.99
584;HTU21D;27024;54.068;12.116;2023-04-01T00:43:43;6.43;118.99
584;HTU21D;27024;54.068;12.116;2023-04-01T00:46:10;6.44;118.99
584;HTU21D;27024;54.068;12.116;2023-04-01T00:48:41;6.51;118.99
584;HTU21D;27024;54.068;12.116;2023-04-01T00:51:18;6.41;118.99
584;HTU21D;27024;54.068;12.116;2023-04-01T00:53:49;6.43;118.99
584;HTU21D;27024;54.068;12.116;2023-04-01T00:56:22;6.36;118.99
584;HTU21D;27024;54.068;12.116;2023-04-01T00:59:01;6.42;118.99
584;HTU21D;27024;54.068;12.116;2023-04-01T01:01:29;6.45;118.99
584;HTU21D;27024;54.068;12.116;2023-04-01T01:03:57;6.36;118.99
584;HTU21D;27024;54.068;12.116;2023-04-01T01:09:18;6.28;118.99
584;HTU21D;27024;54.068;12.116;2023-04-01T01:11:51;6.39;118.99
584;HTU21D;27024;54.068;12.116;2023-04-01T01:14:34;6.43;118.99
584;HTU21D;27024;54.068;12.116;2023-04-01T01:17:32;6.38;118.99
584;HTU21D;27024;54.068;12.116;2023-04-01T01:28:26;6.09;118.99
584;HTU21D;27024;54.068;12.116;2023-04-01T01:36:13;6.04;118.99
584;HTU21D;27024;54.068;12.116;2023-04-01T01:38:41;6.08;118.99
584;HTU21D;27024;54.068;12.116;2023-04-01T01:41:09;5.98;118.99
584;HTU21D;27024;54.068;12.116;2023-04-01T01:43:40;5.94;118.99
584;HTU21D;27024;54.068;12.116;2023-04-01T01:46:11;5.89;118.99
584;HTU21D;27024;54.068;12.116;2023-04-01T01:48:40;5.87;118.99
584;HTU21D;27024;54.068;12.116;2023-04-01T01:51:08;5.77;118.99
584;HTU21D;27024;54.068;12.116;2023-04-01T01:53:36;5.79;118.99
584;HTU21D;27024;54.068;12.116;2023-04-01T01:56:04;5.82;118.99
584;HTU21D;27024;54.068;12.116;2023-04-01T01:58:37;5.82;118.99
584;HTU21D;27024;54.068;12.116;2023-04-01T02:01:11;5.89;118.99
584;HTU21D;27024;54.068;12.116;2023-04-01T02:03:40;5.98;118.99
584;HTU21D;27024;54.068;12.116;2023-04-01T02:06:11;5.85;118.99
584;HTU21D;27024;54.068;12.116;2023-04-01T02:08:47;5.69;118.99
584;HTU21D;27024;54.068;12.116;2023-04-01T02:11:20;5.91;118.99
584;HTU21D;27024;54.068;12.116;2023-04-01T02:13:53;5.90;118.99
584;HTU21D;27024;54.068;12.116;2023-04-01T02:16:33;5.76;118.99
584;HTU21D;27024;54.068;12.116;2023-04-01T02:19:02;5.71;118.99
584;HTU21D;27024;54.068;12.116;2023-04-01T02:21:35;5.64;118.99
584;HTU21D;27024;54.068;12.116;2023-04-01T02:24:05;5.71;118.99
584;HTU21D;27024;54.068;12.116;2023-04-01T02:26:34;5.68;118.99
584;HTU21D;27024;54.068;12.116;2023-04-01T02:29:02;5.66;118.99
584;HTU21D;27024;54.068;12.116;2023-04-01T02:31:31;5.65;118.99
584;HTU21D;27024;54.068;12.116;2023-04-01T02:33:58;5.70;118.99
584;HTU21D;27024;54.068;12.116;2023-04-01T02:36:25;5.57;118.99
584;HTU21D;27024;54.068;12.116;2023-04-01T02:38:54;5.48;118.99
584;HTU21D;27024;54.068;12.116;2023-04-01T02:41:22;5.49;118.99
584;HTU21D;27024;54.068;12.116;2023-04-01T02:43:49;5.51;118.99
584;HTU21D;27024;54.068;12.116;2023-04-01T02:46:16;5.45;118.99
584;HTU21D;27024;54.068;12.116;2023-04-01T02:48:43;5.60;118.99
584;HTU21D;27024;54.068;12.116;2023-04-01T02:51:10;5.49;118.99
584;HTU21D;27024;54.068;12.116;2023-04-01T02:53:37;5.55;118.99
584;HTU21D;27024;54.068;12.116;2023-04-01T02:56:04;5.55;118.99
584;HTU21D;27024;54.068;12.116;2023-04-01T02:58:31;5.52;118.99
584;HTU21D;27024;54.068;12.116;2023-04-01T03:00:57;5.41;118.99
584;HTU21D;27024;54.068;12.116;2023-04-01T03:03:24;5.46;118.99
584;HTU21D;27024;54.068;12.116;2023-04-01T03:05:51;5.49;118.99
584;HTU21D;27024;54.068;12.116;2023-04-01T03:08:21;5.43;118.99
584;HTU21D;27024;54.068;12.116;2023-04-01T03:10:48;5.36;118.99
584;HTU21D;27024;54.068;12.116;2023-04-01T03:13:15;5.27;118.99
584;HTU21D;27024;54.068;12.116;2023-04-01T03:15:42;5.32;118.99
584;HTU21D;27024;54.068;12.116;2023-04-01T03:18:09;5.36;118.99
584;HTU21D;27024;54.068;12.116;2023-04-01T03:20:36;5.28;118.99
584;HTU21D;27024;54.068;12.116;2023-04-01T03:23:02;5.33;118.99
584;HTU21D;27024;54.068;12.116;2023-04-01T03:25:29;5.32;118.99
584;HTU21D;27024;54.068;12.116;2023-04-01T03:27:57;5.32;118.99
584;HTU21D;27024;54.068;12.116;2023-04-01T03:30:26;5.31;118.99
584;HTU21D;27024;54.068;12.116;2023-04-01T03:32:53;5.17;118.99
584;HTU21D;27024;54.068;12.116;2023-04-01T03:35:20;5.16;118.99
584;HTU21D;27024;54.068;12.116;2023-04-01T03:37:47;5.19;118.99
584;HTU21D;27024;54.068;12.116;2023-04-01T03:40:13;5.18;118.99
584;HTU21D;27024;54.068;12.116;2023-04-01T03:42:40;5.16;118.99
584;HTU21D;27024;54.068;12.116;2023-04-01T03:45:07;5.10;118.99
584;HTU21D;27024;54.068;12.116;2023-04-01T03:47:34;5.10;118.99
584;HTU21D;27024;54.068;12.116;2023-04-01T03:50:01;5.16;118.99
584;HTU21D;27024;54.068;12.116;2023-04-01T03:52:28;5.18;118.99
584;HTU21D;27024;54.068;12.116;2023-04-01T03:54:55;5.15;118.99
584;HTU21D;27024;54.068;12.116;2023-04-01T03:57:22;5.12;118.99
584;HTU21D;27024;54.068;12.116;2023-04-01T03:59:49;5.13;118.99
584;HTU21D;27024;54.068;12.116;2023-04-01T04:02:16;5.22;118.99
584;HTU21D;27024;54.068;12.116;2023-04-01T04:04:43;5.26;118.99
584;HTU21D;27024;54.068;12.116;2023-04-01T04:07:09;5.22;118.99
584;HTU21D;27024;54.068;12.116;2023-04-01T04:09:36;5.18;118.99
584;HTU21D;27024;54.068;12.116;2023-04-01T04:12:03;5.15;118.99
584;HTU21D;27024;54.068;12.116;2023-04-01T04:14:31;5.22;118.99
584;HTU21D;27024;54.068;12.116;2023-04-01T04:16:58;5.20;118.99
584;HTU21D;27024;54.068;12.116;2023-04-01T04:19:25;5.18;118.99
584;HTU21D;27024;54.068;12.116;2023-04-01T04:21:52;5.22;118.99
584;HTU21D;27024;54.068;12.116;2023-04-01T04:24:18;5.16;118.99
584;HTU21D;27024;54.068;12.116;2023-04-01T04:26:45;5.15;118.99
584;HTU21D;27024;54.068;12.116;2023-04-01T04:29:12;5.32;118.99
584;HTU21D;27024;54.068;12.116;2023-04-01T04:31:39;5.25;118.99
584;HTU21D;27024;54.068;12.116;2023-04-01T04:34:06;5.21;118.99
584;HTU21D;27024;54.068;12.116;2023-04-01T04:36:32;5.12;118.99
584;HTU21D;27024;54.068;12.116;2023-04-01T04:38:59;5.06;118.99
584;HTU21D;27024;54.068;12.116;2023-04-01T04:41:28;5.13;118.99
584;HTU21D;27024;54.068;12.116;2023-04-01T04:43:56;5.17;118.99
584;HTU21D;27024;54.068;12.116;2023-04-01T04:46:24;5.18;118.99
584;HTU21D;27024;54.068;12.116;2023-04-01T04:48:51;5.13;118.99
584;HTU21D;27024;54.068;12.116;2023-04-01T04:51:19;5.23;118.99
584;HTU21D;27024;54.068;12.116;2023-04-01T04:53:46;5.19;118.99
584;HTU21D;27024;54.068;12.116;2023-04-01T04:56:17;5.18;118.99
584;HTU21D;27024;54.068;12.116;2023-04-01T04:58:44;5.15;118.99
584;HTU21D;27024;54.068;12.116;2023-04-01T05:01:13;5.15;118.99
584;HTU21D;27024;54.068;12.116;2023-04-01T05:03:41;5.16;118.99
584;HTU21D;27024;54.068;12.116;2023-04-01T05:06:10;5.10;118.99
584;HTU21D;27024;54.068;12.116;2023-04-01T05:08:37;5.19;118.99
584;HTU21D;27024;54.068;12.116;2023-04-01T05:11:14;5.21;118.99
584;HTU21D;27024;54.068;12.116;2023-04-01T05:13:42;5.26;118.99
584;HTU21D;27024;54.068;12.116;2023-04-01T05:16:11;5.12;118.99
584;HTU21D;27024;54.068;12.116;2023-04-01T05:18:38;5.13;118.99
584;HTU21D;27024;54.068;12.116;2023-04-01T05:21:08;5.10;118.99
584;HTU21D;27024;54.068;12.116;2023-04-01T05:23:35;5.09;118.99
584;HTU21D;27024;54.068;12.116;2023-04-01T05:26:04;5.12;118.99
584;HTU21D;27024;54.068;12.116;2023-04-01T05:28:32;5.12;118.99
584;HTU21D;27024;54.068;12.116;2023-04-01T05:31:00;5.09;118.99
584;HTU21D;27024;54.068;12.116;2023-04-01T05:33:29;4.97;118.99
584;HTU21D;27024;54.068;12.116;2023-04-01T05:35:56;5.02;118.99
584;HTU21D;27024;54.068;12.116;2023-04-01T05:38:23;5.04;118.99
584;HTU21D;27024;54.068;12.116;2023-04-01T05:40:50;5.06;118.99
584;HTU21D;27024;54.068;12.116;2023-04-01T05:43:16;5.10;118.99
584;HTU21D;27024;54.068;12.116;2023-04-01T05:45:43;5.07;118.99
584;HTU21D;27024;54.068;12.116;2023-04-01T05:48:10;4.93;118.99
584;HTU21D;27024;54.068;12.116;2023-04-01T05:50:39;5.01;118.99
584;HTU21D;27024;54.068;12.116;2023-04-01T05:53:06;5.02;118.99
584;HTU21D;27024;54.068;12.116;2023-04-01T05:55:35;4.97;118.99
584;HTU21D;27024;54.068;12.116;2023-04-01T05:58:02;5.05;118.99
584;HTU21D;27024;54.068;12.116;2023-04-01T06:00:29;5.12;118.99
584;HTU21D;27024;54.068;12.116;2023-04-01T06:02:58;5.08;118.99
584;HTU21D;27024;54.068;12.116;2023-04-01T06:05:41;5.01;118.99
584;HTU21D;27024;54.068;12.116;2023-04-01T06:08:17;4.95;118.99
584;HTU21D;27024;54.068;12.116;2023-04-01T06:16:10;5.00;118.99
584;HTU21D;27024;54.068;12.116;2023-04-01T06:21:48;4.92;118.99
584;HTU21D;27024;54.068;12.116;2023-04-01T06:32:59;5.04;118.99
584;HTU21D;27024;54.068;12.116;2023-04-01T06:52:50;5.04;118.99
584;HTU21D;27024;54.068;12.116;2023-04-01T06:57:50;5.01;118.99
584;HTU21D;27024;54.068;12.116;2023-04-01T07:00:40;5.03;118.99
584;HTU21D;27024;54.068;12.116;2023-04-01T07:03:29;5.08;118.99
584;HTU21D;27024;54.068;12.116;2023-04-01T07:06:04;5.18;118.99
584;HTU21D;27024;54.068;12.116;2023-04-01T07:08:36;4.96;118.99
584;HTU21D;27024;54.068;12.116;2023-04-01T07:11:06;5.02;118.99
584;HTU21D;27024;54.068;12.116;2023-04-01T07:16:10;5.01;118.99
584;HTU21D;27024;54.068;12.116;2023-04-01T07:18:46;5.11;118.99
584;HTU21D;27024;54.068;12.116;2023-04-01T07:21:39;4.95;118.99
584;HTU21D;27024;54.068;12.116;2023-04-01T07:24:21;5.05;118.99
584;HTU21D;27024;54.068;12.116;2023-04-01T07:26:53;5.27;118.99
584;HTU21D;27024;54.068;12.116;2023-04-01T07:29:21;5.02;118.99
584;HTU21D;27024;54.068;12.116;2023-04-01T07:32:12;5.08;118.99
584;HTU21D;27024;54.068;12.116;2023-04-01T07:35:07;5.01;118.99
584;HTU21D;27024;54.068;12.116;2023-04-01T07:37:52;5.05;118.99
584;HTU21D;27024;54.068;12.116;2023-04-01T07:40:45;5.23;118.99
584;HTU21D;27024;54.068;12.116;2023-04-01T07:43:18;5.04;118.99
584;HTU21D;27024;54.068;12.116;2023-04-01T07:48:42;4.98;118.99
584;HTU21D;27024;54.068;12.116;2023-04-01T07:54:05;4.95;118.99
584;HTU21D;27024;54.068;12.116;2023-04-01T07:59:48;4.83;118.99
584;HTU21D;27024;54.068;12.116;2023-04-01T08:08:06;4.89;118.99
584;HTU21D;27024;54.068;12.116;2023-04-01T08:10:49;4.83;118.99
584;HTU21D;27024;54.068;12.116;2023-04-01T08:13:34;4.87;118.99
584;HTU21D;27024;54.068;12.116;2023-04-01T08:19:26;4.76;118.99
584;HTU21D;27024;54.068;12.116;2023-04-01T08:21:58;4.87;118.99
584;HTU21D;27024;54.068;12.116;2023-04-01T08:24:42;4.77;118.99
584;HTU21D;27024;54.068;12.116;2023-04-01T08:27:23;4.74;118.99
584;HTU21D;27024;54.068;12.116;2023-04-01T08:29:57;4.80;118.99
584;HTU21D;27024;54.068;12.116;2023-04-01T08:32:29;4.81;118.99
584;HTU21D;27024;54.068;12.116;2023-04-01T08:35:18;4.79;118.99
584;HTU21D;27024;54.068;12.116;2023-04-01T08:37:48;4.77;118.99
584;HTU21D;27024;54.068;12.116;2023-04-01T08:55:35;4.72;118.99
584;HTU21D;27024;54.068;12.116;2023-04-01T09:10:37;4.65;118.99
584;HTU21D;27024;54.068;12.116;2023-04-01T09:15:54;4.73;118.99
584;HTU21D;27024;54.068;12.116;2023-04-01T09:24:25;4.76;118.99
584;HTU21D;27024;54.068;12.116;2023-04-01T09:41:07;4.74;118.99
584;HTU21D;27024;54.068;12.116;2023-04-01T09:43:54;4.89;118.99
584;HTU21D;27024;54.068;12.116;2023-04-01T09:46:39;4.75;118.99
584;HTU21D;27024;54.068;12.116;2023-04-01T09:49:43;4.86;118.99
584;HTU21D;27024;54.068;12.116;2023-04-01T09:52:31;4.91;118.99
584;HTU21D;27024;54.068;12.116;2023-04-01T09:59:03;5.03;118.99
584;HTU21D;27024;54.068;12.116;2023-04-01T10:16:02;4.73;118.38
584;HTU21D;27024;54.068;12.116;2023-04-01T10:54:30;4.84;115.57
584;HTU21D;27024;54.068;12.116;2023-04-01T11:19:53;4.97;114.54
584;HTU21D;27024;54.068;12.116;2023-04-01T11:27:50;4.98;114.07
584;HTU21D;27024;54.068;12.116;2023-04-01T11:30:49;4.84;114.03
584;HTU21D;27024;54.068;12.116;2023-04-01T11:33:47;5.05;114.65
584;HTU21D;27024;54.068;12.116;2023-04-01T11:42:11;4.97;113.46
584;HTU21D;27024;54.068;12.116;2023-04-01T11:45:12;4.90;114.32
584;HTU21D;27024;54.068;12.116;2023-04-01T12:07:09;4.87;110.73
584;HTU21D;27024;54.068;12.116;2023-04-01T12:10:05;4.83;111.25
584;HTU21D;27024;54.068;12.116;2023-04-01T12:19:01;4.90;111.41
584;HTU21D;27024;54.068;12.116;2023-04-01T12:21:37;4.91;109.76
584;HTU21D;27024;54.068;12.116;2023-04-01T12:41:12;4.92;109.92
584;HTU21D;27024;54.068;12.116;2023-04-01T12:52:14;4.95;109.01
584;HTU21D;27024;54.068;12.116;2023-04-01T12:55:33;4.83;109.44
584;HTU21D;27024;54.068;12.116;2023-04-01T13:10:01;4.65;108.27
584;HTU21D;27024;54.068;12.116;2023-04-01T13:12:53;4.78;107.31
584;HTU21D;27024;54.068;12.116;2023-04-01T13:29:19;4.72;105.93
584;HTU21D;27024;54.068;12.116;2023-04-01T13:37:02;4.74;107.22
584;HTU21D;27024;54.068;12.116;2023-04-01T13:42:12;4.71;105.31
584;HTU21D;27024;54.068;12.116;2023-04-01T14:05:46;4.77;105.50
584;HTU21D;27024;54.068;12.116;2023-04-01T14:08:29;4.69;105.02
584;HTU21D;27024;54.068;12.116;2023-04-01T14:11:21;4.60;103.68
584;HTU21D;27024;54.068;12.116;2023-04-01T14:27:39;4.75;105.37
584;HTU21D;27024;54.068;12.116;2023-04-01T14:33:23;4.57;103.70
584;HTU21D;27024;54.068;12.116;2023-04-01T14:44:24;4.82;104.44
584;HTU21D;27024;54.068;12.116;2023-04-01T14:47:08;4.78;102.57
584;HTU21D;27024;54.068;12.116;2023-04-01T14:49:43;4.81;103.17
584;HTU21D;27024;54.068;12.116;2023-04-01T14:54:49;4.62;100.77
584;HTU21D;27024;54.068;12.116;2023-04-01T15:02:43;4.65;99.44
584;HTU21D;27024;54.068;12.116;2023-04-01T15:13:20;4.62;100.82
584;HTU21D;27024;54.068;12.116;2023-04-01T15:30:19;4.53;100.96
584;HTU21D;27024;54.068;12.116;2023-04-01T15:33:01;4.59;102.88
584;HTU21D;27024;54.068;12.116;2023-04-01T15:41:15;4.30;100.00
584;HTU21D;27024;54.068;12.116;2023-04-01T15:43:51;4.37;100.24
584;HTU21D;27024;54.068;12.116;2023-04-01T15:46:43;4.37;100.47
584;HTU21D;27024;54.068;12.116;2023-04-01T16:00:28;4.38;99.86
584;HTU21D;27024;54.068;12.116;2023-04-01T16:03:20;4.43;100.64
584;HTU21D;27024;54.068;12.116;2023-04-01T16:14:43;4.13;95.91
584;HTU21D;27024;54.068;12.116;2023-04-01T16:17:30;4.29;95.65
584;HTU21D;27024;54.068;12.116;2023-04-01T16:22:49;4.14;94.00
584;HTU21D;27024;54.068;12.116;2023-04-01T16:25:32;4.19;94.81
584;HTU21D;27024;54.068;12.116;2023-04-01T16:28:15;4.24;95.41
584;HTU21D;27024;54.068;12.116;2023-04-01T16:30:50;4.26;95.86
584;HTU21D;27024;54.068;12.116;2023-04-01T16:33:28;4.20;97.10
584;HTU21D;27024;54.068;12.116;2023-04-01T16:41:20;4.35;101.06
584;HTU21D;27024;54.068;12.116;2023-04-01T16:43:51;4.14;98.39
584;HTU21D;27024;54.068;12.116;2023-04-01T16:46:34;4.06;97.91
584;HTU21D;27024;54.068;12.116;2023-04-01T16:51:57;4.17;96.45
584;HTU21D;27024;54.068;12.116;2023-04-01T16:54:40;4.07;95.31
584;HTU21D;27024;54.068;12.116;2023-04-01T17:02:17;4.36;95.39
584;HTU21D;27024;54.068;12.116;2023-04-01T17:15:37;3.87;90.99
584;HTU21D;27024;54.068;12.116;2023-04-01T17:18:23;3.87;92.75
584;HTU21D;27024;54.068;12.116;2023-04-01T17:23:53;3.98;93.27
584;HTU21D;27024;54.068;12.116;2023-04-01T17:26:38;3.90;91.60
584;HTU21D;27024;54.068;12.116;2023-04-01T17:32:31;3.86;90.06
584;HTU21D;27024;54.068;12.116;2023-04-01T17:35:12;3.83;90.09
584;HTU21D;27024;54.068;12.116;2023-04-01T17:43:48;3.80;91.40
584;HTU21D;27024;54.068;12.116;2023-04-01T17:52:24;3.74;93.46
584;HTU21D;27024;54.068;12.116;2023-04-01T17:55:15;3.76;94.10
584;HTU21D;27024;54.068;12.116;2023-04-01T18:09:40;3.68;95.07
584;HTU21D;27024;54.068;12.116;2023-04-01T18:12:56;3.56;94.16
584;HTU21D;27024;54.068;12.116;2023-04-01T18:23:43;3.27;90.86
584;HTU21D;27024;54.068;12.116;2023-04-01T18:26:32;3.25;90.18
584;HTU21D;27024;54.068;12.116;2023-04-01T18:29:11;3.19;90.19
584;HTU21D;27024;54.068;12.116;2023-04-01T18:31:44;3.19;92.14
584;HTU21D;27024;54.068;12.116;2023-04-01T18:34:20;3.29;91.72
584;HTU21D;27024;54.068;12.116;2023-04-01T18:37:00;3.31;92.18
584;HTU21D;27024;54.068;12.116;2023-04-01T18:39:41;3.39;93.05
584;HTU21D;27024;54.068;12.116;2023-04-01T18:42:19;3.34;94.11
584;HTU21D;27024;54.068;12.116;2023-04-01T18:44:52;3.35;93.69
584;HTU21D;27024;54.068;12.116;2023-04-01T18:47:27;3.28;93.79
584;HTU21D;27024;54.068;12.116;2023-04-01T18:52:45;3.29;94.23
584;HTU21D;27024;54.068;12.116;2023-04-01T18:55:34;3.36;94.01
584;HTU21D;27024;54.068;12.116;2023-04-01T18:58:23;3.41;94.22
584;HTU21D;27024;54.068;12.116;2023-04-01T19:01:12;3.40;94.54
584;HTU21D;27024;54.068;12.116;2023-04-01T19:04:00;3.44;94.46
584;HTU21D;27024;54.068;12.116;2023-04-01T19:06:48;3.23;94.43
584;HTU21D;27024;54.068;12.116;2023-04-01T19:09:19;3.26;95.17
584;HTU21D;27024;54.068;12.116;2023-04-01T19:28:42;2.87;93.94
584;HTU21D;27024;54.068;12.116;2023-04-01T19:37:27;2.82;94.52
584;HTU21D;27024;54.068;12.116;2023-04-01T19:47:44;2.84;97.31
584;HTU21D;27024;54.068;12.116;2023-04-01T19:50:20;2.72;96.65
584;HTU21D;27024;54.068;12.116;2023-04-01T19:52:56;2.78;96.42
584;HTU21D;27024;54.068;12.116;2023-04-01T19:55:47;2.98;99.45
584;HTU21D;27024;54.068;12.116;2023-04-01T20:01:28;2.72;97.54
584;HTU21D;27024;54.068;12.116;2023-04-01T20:04:23;2.81;97.01
584;HTU21D;27024;54.068;12.116;2023-04-01T20:07:07;2.70;95.78
584;HTU21D;27024;54.068;12.116;2023-04-01T20:10:04;2.73;94.53
584;HTU21D;27024;54.068;12.116;2023-04-01T20:18:20;2.53;95.17
584;HTU21D;27024;54.068;12.116;2023-04-01T20:20:59;2.59;94.56
584;HTU21D;27024;54.068;12.116;2023-04-01T20:23:33;2.58;94.49
584;HTU21D;27024;54.068;12.116;2023-04-01T20:26:07;2.65;94.44
584;HTU21D;27024;54.068;12.116;2023-04-01T20:29:17;2.53;95.30
584;HTU21D;27024;54.068;12.116;2023-04-01T20:32:06;2.44;94.78
584;HTU21D;27024;54.068;12.116;2023-04-01T20:42:49;2.43;94.30
584;HTU21D;27024;54.068;12.116;2023-04-01T20:45:35;2.39;94.17
584;HTU21D;27024;54.068;12.116;2023-04-01T20:51:01;2.37;94.79
584;HTU21D;27024;54.068;12.116;2023-04-01T20:53:35;2.39;94.31
584;HTU21D;27024;54.068;12.116;2023-04-01T21:01:54;2.23;95.03
584;HTU21D;27024;54.068;12.116;2023-04-01T21:07:41;2.26;95.50
584;HTU21D;27024;54.068;12.116;2023-04-01T21:54:26;2.02;97.68
584;HTU21D;27024;54.068;12.116;2023-04-01T22:05:33;2.05;98.89
584;HTU21D;27024;54.068;12.116;2023-04-01T22:08:26;1.98;98.98
584;HTU21D;27024;54.068;12.116;2023-04-01T22:11:18;1.95;98.71
584;HTU21D;27024;54.068;12.116;2023-04-01T22:14:01;2.01;98.75
584;HTU21D;27024;54.068;12.116;2023-04-01T22:32:19;2.00;99.75
584;HTU21D;27024;54.068;12.116;2023-04-01T22:40:25;2.08;100.78
584;HTU21D;27024;54.068;12.116;2023-04-01T22:43:25;1.99;101.01
584;HTU21D;27024;54.068;12.116;2023-04-01T22:46:02;2.05;102.18
584;HTU21D;27024;54.068;12.116;2023-04-01T22:49:00;2.00;101.14
584;HTU21D;27024;54.068;12.116;2023-04-01T22:52:40;2.06;101.27
584;HTU21D;27024;54.068;12.116;2023-04-01T22:54:58;2.11;101.45
584;HTU21D;27024;54.068;12.116;2023-04-01T23:00:08;2.16;101.34
584;HTU21D;27024;54.068;12.116;2023-04-01T23:02:43;2.20;100.95
584;HTU21D;27024;54.068;12.116;2023-04-01T23:05:17;2.26;101.10
584;HTU21D;27024;54.068;12.116;2023-04-01T23:08:07;2.30;100.39
584;HTU21D;27024;54.068;12.116;2023-04-01T23:10:52;2.38;99.91
584;HTU21D;27024;54.068;12.116;2023-04-01T23:16:45;2.45;98.05
584;HTU21D;27024;54.068;12.116;2023-04-01T23:19:15;2.50;98.03
584;HTU21D;27024;54.068;12.116;2023-04-01T23:21:50;2.56;97.10
584;HTU21D;27024;54.068;12.116;2023-04-01T23:24:26;2.60;96.62
584;HTU21D;27024;54.068;12.116;2023-04-01T23:26:59;2.65;96.33
584;HTU21D;27024;54.068;12.116;2023-04-01T23:29:28;2.59;96.07
584;HTU21D;27024;54.068;12.116;2023-04-01T23:32:05;2.64;95.85
584;HTU21D;27024;54.068;12.116;2023-04-01T23:34:39;2.71;95.79
584;HTU21D;27024;54.068;12.116;2023-04-01T23:37:13;2.68;95.36
584;HTU21D;27024;54.068;12.116;2023-04-01T23:39:45;2.59;96.03
584;HTU21D;27024;54.068;12.116;2023-04-01T23:42:25;2.64;95.38
584;HTU21D;27024;54.068;12.116;2023-04-01T23:44:58;2.75;95.56
584;HTU21D;27024;54.068;12.116;2023-04-01T23:47:33;2.72;95.23
584;HTU21D;27024;54.068;12.116;2023-04-01T23:50:04;2.70;95.14
584;HTU21D;27024;54.068;12.116;2023-04-01T23:52:40;2.72;94.91
584;HTU21D;27024;54.068;12.116;2023-04-01T23:55:16;2.67;94.66
